Time;durP1;ratioP1;P1;durP2;ratioP2;P2;SDS_P1;SDS_P2;PMS_P1;PMS_P2;Temp;Humidity;BMP_temperature;BMP_pressure;BME280_temperature;BME280_humidity;BME280_pressure;Samples;Min_cycle;Max_cycle;Signal;HPM_P1;HPM_P2
2023/12/05 00:01:00;;;;;;;1582.07;999.90;;;27.40;99.90;;;;;;5054047;28;20025;-67
2023/12/05 00:03:26;;;;;;;1576.22;999.90;;;27.40;99.90;;;;;;5053809;28;20071;-71
2023/12/05 00:05:53;;;;;;;1570.13;999.90;;;27.40;99.90;;;;;;5053266;28;20083;-69
2023/12/05 00:08:19;;;;;;;1563.10;999.90;;;27.50;99.90;;;;;;5053729;28;20498;-71
2023/12/05 00:10:46;;;;;;;1592.32;999.90;;;27.50;99.90;;;;;;5053240;28;20052;-67
2023/12/05 00:13:12;;;;;;;1597.07;999.90;;;27.50;99.90;;;;;;5053592;28;20433;-67
2023/12/05 00:15:39;;;;;;;1595.43;999.90;;;27.60;99.90;;;;;;5052861;28;20024;-67
2023/12/05 00:18:09;;;;;;;1571.10;999.90;;;27.50;99.90;;;;;;5053358;28;20071;-67
2023/12/05 00:20:35;;;;;;;1583.57;999.90;;;27.50;99.90;;;;;;5052401;28;20183;-67
2023/12/05 00:23:02;;;;;;;1593.53;999.90;;;27.50;99.90;;;;;;5032314;28;20077;-67
2023/12/05 00:25:29;;;;;;;1594.30;999.90;;;27.60;99.90;;;;;;5033485;28;20066;-68
2023/12/05 00:27:55;;;;;;;1588.65;999.90;;;27.60;99.90;;;;;;5033571;28;20021;-67
2023/12/05 00:30:23;;;;;;;1555.32;999.90;;;27.60;99.90;;;;;;5033620;28;20092;-68
2023/12/05 00:32:50;;;;;;;1586.88;999.90;;;27.60;99.90;;;;;;5020621;28;20489;-67
2023/12/05 00:35:18;;;;;;;1586.40;999.90;;;27.60;99.90;;;;;;5022646;28;20022;-66
2023/12/05 00:37:44;;;;;;;1593.45;999.90;;;27.70;99.90;;;;;;5033423;28;20048;-69
2023/12/05 00:40:11;;;;;;;1592.50;999.90;;;27.70;99.90;;;;;;5033178;28;20172;-67
2023/12/05 00:42:38;;;;;;;1592.18;999.90;;;27.70;99.90;;;;;;5033410;28;20026;-67
2023/12/05 00:45:05;;;;;;;1595.28;999.90;;;27.80;99.90;;;;;;5033365;28;20022;-67
2023/12/05 00:47:32;;;;;;;1586.60;999.90;;;27.80;99.90;;;;;;5033097;28;20025;-67
2023/12/05 00:49:58;;;;;;;1567.30;999.90;;;27.80;99.90;;;;;;5033201;28;20108;-67
2023/12/05 00:52:25;;;;;;;1597.72;999.90;;;27.80;99.90;;;;;;5033099;28;20084;-66
2023/12/05 00:54:51;;;;;;;1594.85;999.90;;;27.80;99.90;;;;;;5032921;28;20021;-68
2023/12/05 00:57:18;;;;;;;1560.07;999.90;;;27.90;99.90;;;;;;5033077;28;20030;-67
2023/12/05 00:59:44;;;;;;;1591.82;999.90;;;27.90;99.90;;;;;;5033240;28;20013;-67
2023/12/05 01:02:11;;;;;;;1607.07;999.90;;;28.00;99.90;;;;;;5032882;28;20029;-67
2023/12/05 01:04:37;;;;;;;1602.13;999.90;;;28.00;99.90;;;;;;5032979;28;20076;-67
2023/12/05 01:07:04;;;;;;;1579.18;999.90;;;28.00;99.90;;;;;;5018600;28;20022;-67
2023/12/05 01:09:31;;;;;;;1559.32;999.90;;;28.00;99.90;;;;;;5012927;28;20128;-67
2023/12/05 01:11:57;;;;;;;1570.43;999.90;;;28.10;99.90;;;;;;5013127;28;20100;-68
2023/12/05 01:14:24;;;;;;;1588.22;999.90;;;28.10;99.90;;;;;;5013369;28;20029;-67
2023/12/05 01:16:50;;;;;;;1599.72;999.90;;;28.20;99.90;;;;;;5013100;28;20037;-66
2023/12/05 01:19:17;;;;;;;1594.32;999.90;;;28.20;99.90;;;;;;5013288;28;20033;-67
2023/12/05 01:21:43;;;;;;;1581.57;999.90;;;28.20;99.90;;;;;;5013169;28;20026;-66
2023/12/05 01:24:10;;;;;;;1593.30;999.90;;;28.30;99.90;;;;;;5013168;28;20026;-67
2023/12/05 01:26:36;;;;;;;1592.45;999.90;;;28.30;99.90;;;;;;5013029;28;20025;-67
2023/12/05 01:29:04;;;;;;;1569.78;999.90;;;28.40;99.90;;;;;;5013005;28;20026;-66
2023/12/05 01:31:31;;;;;;;1574.75;999.90;;;28.30;99.90;;;;;;5012992;28;20502;-67
2023/12/05 01:33:58;;;;;;;1586.22;999.90;;;28.40;99.90;;;;;;5013057;28;20038;-67
2023/12/05 01:36:26;;;;;;;1587.43;999.90;;;28.40;99.90;;;;;;5013195;28;20022;-67
2023/12/05 01:38:54;;;;;;;1588.00;999.90;;;28.40;99.90;;;;;;5013193;28;20026;-67
2023/12/05 01:41:21;;;;;;;1585.93;999.90;;;28.50;99.90;;;;;;5012847;28;20034;-67
2023/12/05 01:43:47;;;;;;;1588.70;999.90;;;28.60;99.90;;;;;;5013097;28;20069;-67
2023/12/05 01:46:15;;;;;;;1571.68;999.90;;;28.60;99.90;;;;;;5013145;28;20026;-67
2023/12/05 01:48:41;;;;;;;1576.47;999.90;;;28.60;99.90;;;;;;5012777;28;20057;-67
2023/12/05 01:51:09;;;;;;;1573.25;999.90;;;28.60;99.90;;;;;;5013129;28;20049;-72
2023/12/05 01:53:39;;;;;;;1557.28;999.90;;;28.60;99.90;;;;;;5013041;28;20080;-72
2023/12/05 01:56:07;;;;;;;1594.97;999.90;;;28.70;99.90;;;;;;5012839;28;20029;-71
2023/12/05 01:58:36;;;;;;;1585.68;999.90;;;28.80;99.90;;;;;;5012999;28;20022;-71
2023/12/05 02:01:05;;;;;;;1561.20;999.90;;;28.90;99.90;;;;;;5012563;28;20030;-69
2023/12/05 02:03:32;;;;;;;1553.13;999.90;;;28.90;99.90;;;;;;5012881;28;20018;-69
2023/12/05 02:05:59;;;;;;;1577.18;999.90;;;28.90;99.90;;;;;;5012850;28;20045;-70
2023/12/05 02:08:28;;;;;;;1571.30;999.90;;;29.00;99.90;;;;;;5012580;28;20049;-69
2023/12/05 02:10:55;;;;;;;1491.18;999.90;;;29.00;99.90;;;;;;5030930;28;20498;-69
2023/12/05 02:13:22;;;;;;;1547.13;999.90;;;29.00;99.90;;;;;;5052247;28;20025;-67
2023/12/05 02:16:01;;;;;;;1585.38;999.90;;;29.00;99.90;;;;;;5052085;28;20017;-70
2023/12/05 02:18:33;;;;;;;1632.47;999.90;;;29.00;99.90;;;;;;5053403;28;20024;-69
2023/12/05 02:21:12;;;;;;;1588.20;999.90;;;29.10;99.90;;;;;;5055886;28;20472;-67
2023/12/05 02:24:02;;;;;;;1571.90;999.90;;;29.30;99.90;;;;;;5022530;28;20056;-66
2023/12/05 02:26:29;;;;;;;1569.30;999.90;;;29.40;99.90;;;;;;5035192;28;20032;-64
2023/12/05 02:28:56;;;;;;;1619.32;999.90;;;29.50;99.90;;;;;;5035693;28;20022;-64
2023/12/05 02:31:23;;;;;;;1566.68;999.90;;;29.50;99.90;;;;;;5035808;28;20028;-65
2023/12/05 02:33:49;;;;;;;1551.18;999.90;;;29.60;99.90;;;;;;5035585;28;20021;-67
2023/12/05 02:36:19;;;;;;;1525.40;999.90;;;29.60;99.90;;;;;;5034451;28;20028;-64
2023/12/05 02:39:25;;;;;;;1556.32;999.90;;;29.60;99.90;;;;;;5033715;28;20036;-65
2023/12/05 02:41:56;;;;;;;1578.82;999.90;;;29.60;99.90;;;;;;5033666;28;20029;-65
2023/12/05 02:44:31;;;;;;;1574.50;999.90;;;29.70;99.90;;;;;;5034510;28;20028;-66
2023/12/05 02:46:59;;;;;;;1573.95;999.90;;;29.70;99.90;;;;;;5034797;28;20096;-67
2023/12/05 02:49:26;;;;;;;1570.60;999.90;;;29.60;99.90;;;;;;5035249;28;20022;-66
2023/12/05 02:51:53;;;;;;;1583.43;999.90;;;29.60;99.90;;;;;;5035230;28;20029;-66
2023/12/05 02:54:20;;;;;;;1581.05;999.90;;;29.60;99.90;;;;;;5035356;28;20023;-65
2023/12/05 02:56:46;;;;;;;1552.00;999.90;;;29.60;99.90;;;;;;5035313;28;20079;-66
2023/12/05 02:59:13;;;;;;;1575.05;999.90;;;29.60;99.90;;;;;;5035168;28;20022;-66
2023/12/05 03:01:40;;;;;;;1578.03;999.90;;;29.60;99.90;;;;;;5035129;28;20037;-66
2023/12/05 03:04:07;;;;;;;1572.90;999.90;;;29.50;99.90;;;;;;5035097;28;20030;-66
2023/12/05 03:06:33;;;;;;;1582.93;999.90;;;29.60;99.90;;;;;;5034981;28;20017;-65
2023/12/05 03:09:03;;;;;;;1580.82;999.90;;;29.70;99.90;;;;;;5035379;28;20033;-65
2023/12/05 03:11:31;;;;;;;1578.28;999.90;;;29.70;99.90;;;;;;5034837;28;20076;-65
2023/12/05 03:13:59;;;;;;;1496.35;999.90;;;29.80;99.90;;;;;;5035297;28;20468;-66
2023/12/05 03:16:26;;;;;;;1573.72;999.90;;;29.80;99.90;;;;;;5034974;28;20033;-66
2023/12/05 03:18:53;;;;;;;1543.95;999.90;;;29.80;99.90;;;;;;5034832;28;20021;-66
2023/12/05 03:21:19;;;;;;;1573.05;999.90;;;29.90;99.90;;;;;;5034554;28;20088;-66
2023/12/05 03:23:46;;;;;;;1578.50;999.90;;;30.00;99.90;;;;;;5034719;28;20079;-66
2023/12/05 03:26:23;;;;;;;1606.45;999.90;;;30.10;99.90;;;;;;5035152;28;20080;-65
2023/12/05 03:28:50;;;;;;;1575.70;999.90;;;30.20;99.90;;;;;;5043174;28;20013;-67
2023/12/05 03:31:17;;;;;;;1571.65;999.90;;;30.20;99.90;;;;;;5043352;28;20052;-68
2023/12/05 03:33:44;;;;;;;1575.15;999.90;;;30.40;99.90;;;;;;5044804;28;20051;-67
2023/12/05 03:36:12;;;;;;;1569.28;999.90;;;30.40;99.90;;;;;;5040391;28;20028;-66
2023/12/05 03:38:39;;;;;;;1571.30;999.90;;;30.40;99.90;;;;;;5044067;28;20029;-66
2023/12/05 03:41:07;;;;;;;1569.15;999.90;;;30.40;99.90;;;;;;5044682;28;20033;-66
2023/12/05 03:43:34;;;;;;;1570.40;999.90;;;30.40;99.90;;;;;;5043450;28;20025;-67
2023/12/05 03:46:01;;;;;;;1569.25;999.90;;;30.40;99.90;;;;;;5045823;28;20458;-70
2023/12/05 03:48:27;;;;;;;1573.82;999.90;;;30.50;99.90;;;;;;5054263;28;20048;-69
2023/12/05 03:50:54;;;;;;;1572.35;999.90;;;30.60;99.90;;;;;;5054321;28;20021;-69
2023/12/05 03:53:20;;;;;;;1575.47;999.90;;;30.60;99.90;;;;;;5054272;28;20507;-69
2023/12/05 03:55:47;;;;;;;1569.38;999.90;;;30.70;99.90;;;;;;5054050;28;20079;-69
2023/12/05 03:58:13;;;;;;;1522.72;999.90;;;30.70;99.90;;;;;;5054153;28;20078;-69
2023/12/05 04:00:40;;;;;;;1548.80;999.90;;;30.80;99.90;;;;;;5054096;28;20029;-71
2023/12/05 04:03:06;;;;;;;1573.03;999.90;;;30.70;99.90;;;;;;5053948;28;20439;-69
2023/12/05 04:05:33;;;;;;;1569.00;999.90;;;30.70;99.90;;;;;;5047309;28;20029;-70
2023/12/05 04:08:00;;;;;;;1573.95;999.90;;;30.80;99.90;;;;;;5044095;28;20013;-69
2023/12/05 04:10:26;;;;;;;1555.07;999.90;;;30.90;99.90;;;;;;5042725;28;20024;-70
2023/12/05 04:12:53;;;;;;;1580.38;999.90;;;30.80;99.90;;;;;;5035630;28;20100;-69
2023/12/05 04:15:19;;;;;;;1552.00;999.90;;;31.00;99.90;;;;;;5038931;28;20029;-69
2023/12/05 04:17:46;;;;;;;1555.50;999.90;;;31.00;99.90;;;;;;5042160;28;20025;-72
2023/12/05 04:20:13;;;;;;;1576.78;999.90;;;31.10;99.90;;;;;;5042217;28;20025;-72
2023/12/05 04:22:40;;;;;;;1574.05;999.90;;;31.10;99.90;;;;;;5035029;28;20087;-72
2023/12/05 04:25:07;;;;;;;1571.93;999.90;;;31.10;99.90;;;;;;5042655;28;20052;-72
2023/12/05 04:27:33;;;;;;;1543.75;999.90;;;31.10;99.90;;;;;;5040791;28;20420;-71
2023/12/05 04:30:00;;;;;;;1573.03;999.90;;;31.10;99.90;;;;;;5041159;28;20021;-73
2023/12/05 04:32:26;;;;;;;1561.70;999.90;;;31.10;99.90;;;;;;5041831;28;20024;-72
2023/12/05 04:34:53;;;;;;;1549.10;999.90;;;31.10;99.90;;;;;;5041347;28;20020;-73
2023/12/05 04:37:19;;;;;;;1573.03;999.90;;;31.10;99.90;;;;;;5042688;28;20439;-70
2023/12/05 04:39:46;;;;;;;1573.60;999.90;;;31.10;99.90;;;;;;5043147;28;20071;-72
2023/12/05 04:42:12;;;;;;;1570.72;999.90;;;31.10;99.90;;;;;;5040807;28;20053;-72
2023/12/05 04:44:39;;;;;;;1576.63;999.90;;;31.20;99.90;;;;;;5042689;28;20017;-73
2023/12/05 04:47:05;;;;;;;1551.15;999.90;;;31.20;99.90;;;;;;5043373;28;20028;-73
2023/12/05 04:49:33;;;;;;;1574.65;999.90;;;31.10;99.90;;;;;;5041147;28;20021;-72
2023/12/05 04:52:00;;;;;;;1540.43;999.90;;;31.20;99.90;;;;;;5042420;28;20047;-71
2023/12/05 04:54:26;;;;;;;1565.15;999.90;;;31.20;99.90;;;;;;5043276;28;20017;-69
2023/12/05 04:56:53;;;;;;;1574.93;999.90;;;31.30;99.90;;;;;;5041110;28;20022;-72
2023/12/05 04:59:19;;;;;;;1573.85;999.90;;;31.40;99.90;;;;;;5042416;28;20017;-72
2023/12/05 05:01:47;;;;;;;1574.43;999.90;;;31.30;99.90;;;;;;5042885;28;20025;-72
2023/12/05 05:04:14;;;;;;;1575.47;999.90;;;31.40;99.90;;;;;;5041321;28;20025;-72
2023/12/05 05:06:40;;;;;;;1563.80;999.90;;;31.40;99.90;;;;;;5053025;28;20017;-71
2023/12/05 05:09:07;;;;;;;1575.05;999.90;;;31.50;99.90;;;;;;5053361;28;20021;-72
2023/12/05 05:11:34;;;;;;;1555.82;999.90;;;31.60;99.90;;;;;;5047551;28;20049;-70
2023/12/05 05:14:00;;;;;;;1569.53;999.90;;;31.60;99.90;;;;;;5049839;28;20060;-67
2023/12/05 05:16:27;;;;;;;1582.28;999.90;;;31.70;99.90;;;;;;5030262;28;20022;-69
2023/12/05 05:18:53;;;;;;;1578.25;999.90;;;31.70;99.90;;;;;;5041385;28;20017;-67
2023/12/05 05:21:20;;;;;;;1568.00;999.90;;;31.80;99.90;;;;;;5038146;28;20029;-68
2023/12/05 05:23:46;;;;;;;1577.38;999.90;;;31.80;99.90;;;;;;5032482;28;20037;-69
2023/12/05 05:26:14;;;;;;;1559.05;999.90;;;31.80;99.90;;;;;;5043734;28;20060;-66
2023/12/05 05:28:40;;;;;;;1583.05;999.90;;;31.90;99.90;;;;;;5044129;28;20063;-69
2023/12/05 05:31:07;;;;;;;1576.88;999.90;;;31.90;99.90;;;;;;5039820;28;20056;-69
2023/12/05 05:33:33;;;;;;;1574.00;999.90;;;31.90;99.90;;;;;;5040971;28;20535;-69
2023/12/05 05:36:00;;;;;;;1575.55;999.90;;;32.00;99.90;;;;;;5039421;28;20043;-68
2023/12/05 05:38:26;;;;;;;1553.40;999.90;;;32.10;99.90;;;;;;5041738;28;20049;-70
2023/12/05 05:41:04;;;;;;;1574.45;999.90;;;32.10;99.90;;;;;;5039467;28;20031;-71
2023/12/05 05:43:31;;;;;;;1546.50;999.90;;;32.10;99.90;;;;;;5039094;28;20056;-71
2023/12/05 05:45:57;;;;;;;1571.78;999.90;;;32.10;99.90;;;;;;5041145;28;20020;-70
2023/12/05 05:48:24;;;;;;;1570.75;999.90;;;32.20;99.90;;;;;;5041495;28;20070;-70
2023/12/05 05:50:50;;;;;;;1568.47;999.90;;;32.30;99.90;;;;;;5040795;28;20110;-72
2023/12/05 05:53:17;;;;;;;1565.20;999.90;;;32.30;99.90;;;;;;5042353;28;20413;-70
2023/12/05 05:55:44;;;;;;;1569.47;999.90;;;32.30;99.90;;;;;;5046575;28;20064;-68
2023/12/05 05:58:12;;;;;;;1577.88;999.90;;;32.50;99.90;;;;;;5042398;28;20057;-72
2023/12/05 06:00:38;;;;;;;1574.13;999.90;;;32.50;99.90;;;;;;5044584;28;20021;-72
2023/12/05 06:03:05;;;;;;;1560.63;999.90;;;32.60;99.90;;;;;;5045818;28;21088;-71
2023/12/05 06:05:32;;;;;;;1573.13;999.90;;;32.60;99.90;;;;;;5042307;28;20048;-70
2023/12/05 06:07:58;;;;;;;1553.78;999.90;;;32.60;99.90;;;;;;5045503;28;20057;-72
2023/12/05 06:10:26;;;;;;;1564.65;999.90;;;32.50;99.90;;;;;;5043759;28;20083;-70
2023/12/05 06:12:53;;;;;;;1570.70;999.90;;;32.50;99.90;;;;;;5046195;28;20045;-71
2023/12/05 06:15:20;;;;;;;1573.78;999.90;;;32.70;99.90;;;;;;5044499;28;20025;-71
2023/12/05 06:17:46;;;;;;;1573.57;999.90;;;32.70;99.90;;;;;;5045718;28;20116;-67
2023/12/05 06:20:13;;;;;;;1571.40;999.90;;;32.70;99.90;;;;;;5040985;28;20026;-69
2023/12/05 06:22:39;;;;;;;1569.65;999.90;;;32.70;99.90;;;;;;5036058;28;20025;-66
2023/12/05 06:25:06;;;;;;;1584.03;999.90;;;32.70;99.90;;;;;;5036232;28;20045;-66
2023/12/05 06:27:32;;;;;;;1575.93;999.90;;;32.70;99.90;;;;;;5035816;28;20049;-68
2023/12/05 06:29:59;;;;;;;1566.63;999.90;;;32.70;99.90;;;;;;5036062;28;20064;-67
2023/12/05 06:32:25;;;;;;;1577.75;999.90;;;32.70;99.90;;;;;;5035953;28;20021;-67
2023/12/05 06:34:52;;;;;;;1574.93;999.90;;;32.70;99.90;;;;;;5035297;28;20033;-65
2023/12/05 06:37:20;;;;;;;1608.38;999.90;;;32.70;99.90;;;;;;5034469;28;20021;-68
2023/12/05 06:39:47;;;;;;;1772.38;999.90;;;32.70;99.90;;;;;;5034617;28;20495;-65
2023/12/05 06:42:13;;;;;;;1639.50;999.90;;;32.70;99.90;;;;;;5034614;28;20040;-65
2023/12/05 06:44:40;;;;;;;1569.88;999.90;;;32.70;99.90;;;;;;5035175;28;20050;-66
2023/12/05 06:47:06;;;;;;;1564.45;999.90;;;32.70;99.90;;;;;;5035121;28;20380;-67
2023/12/05 06:49:33;;;;;;;1565.25;999.90;;;32.70;99.90;;;;;;5035003;28;20509;-64
2023/12/05 06:52:00;;;;;;;1561.80;999.90;;;32.70;99.90;;;;;;5035552;28;20040;-67
2023/12/05 06:54:27;;;;;;;1565.90;999.90;;;32.70;99.90;;;;;;5035420;28;20025;-65
2023/12/05 06:56:53;;;;;;;1563.43;999.90;;;32.70;99.90;;;;;;5035307;28;20476;-66
2023/12/05 06:59:20;;;;;;;1551.57;999.90;;;32.70;99.90;;;;;;5035432;28;20039;-65
2023/12/05 07:01:46;;;;;;;1549.55;999.90;;;32.70;99.90;;;;;;5035343;28;20101;-64
2023/12/05 07:04:13;;;;;;;1566.43;999.90;;;32.70;99.90;;;;;;5035019;28;20533;-65
2023/12/05 07:06:39;;;;;;;1545.57;999.90;;;32.70;99.90;;;;;;5035254;28;20029;-64
2023/12/05 07:09:06;;;;;;;1549.10;999.90;;;32.70;99.90;;;;;;5039003;28;20029;-65
2023/12/05 07:11:32;;;;;;;1570.03;999.90;;;32.70;99.90;;;;;;5042460;28;20143;-66
2023/12/05 07:13:59;;;;;;;1558.38;999.90;;;32.70;99.90;;;;;;5044212;28;20041;-64
2023/12/05 07:16:26;;;;;;;1560.72;999.90;;;32.70;99.90;;;;;;5043163;28;20017;-66
2023/12/05 07:18:54;;;;;;;1566.93;999.90;;;32.70;99.90;;;;;;5040471;28;20061;-66
2023/12/05 07:21:20;;;;;;;1541.15;999.90;;;32.70;99.90;;;;;;5043903;28;20029;-64
2023/12/05 07:23:47;;;;;;;1567.20;999.90;;;32.70;99.90;;;;;;5045010;28;20380;-66
2023/12/05 07:26:13;;;;;;;1540.03;999.90;;;32.80;99.90;;;;;;5040481;28;20026;-65
2023/12/05 07:28:40;;;;;;;1564.22;999.90;;;32.70;99.90;;;;;;5043677;28;20460;-65
2023/12/05 07:31:07;;;;;;;1543.72;999.90;;;32.70;99.90;;;;;;5043812;28;20463;-65
2023/12/05 07:33:33;;;;;;;1559.93;999.90;;;32.70;99.90;;;;;;5044721;28;20100;-66
2023/12/05 07:36:04;;;;;;;1565.45;999.90;;;32.70;99.90;;;;;;5042853;28;20104;-65
2023/12/05 07:38:30;;;;;;;1572.72;999.90;;;32.80;99.90;;;;;;5043039;28;20025;-64
2023/12/05 07:40:57;;;;;;;1563.70;999.90;;;32.90;99.90;;;;;;5044380;28;20107;-64
2023/12/05 07:43:24;;;;;;;1568.43;999.90;;;32.90;99.90;;;;;;5043237;28;20017;-64
2023/12/05 07:45:50;;;;;;;1548.55;999.90;;;32.90;99.90;;;;;;5042694;28;20047;-64
2023/12/05 07:48:17;;;;;;;1561.45;999.90;;;33.00;99.90;;;;;;5044909;28;20065;-64
2023/12/05 07:50:43;;;;;;;1569.38;999.90;;;33.00;99.90;;;;;;5043068;28;20017;-65
2023/12/05 07:53:10;;;;;;;1571.82;999.90;;;33.00;99.90;;;;;;5042286;28;20032;-65
2023/12/05 07:55:36;;;;;;;1545.72;999.90;;;33.00;99.90;;;;;;5044325;28;20067;-64
2023/12/05 07:58:03;;;;;;;1563.50;999.90;;;33.00;99.90;;;;;;5042810;28;20026;-65
2023/12/05 08:00:30;;;;;;;1552.75;999.90;;;33.00;99.90;;;;;;5042571;28;20522;-65
2023/12/05 08:02:57;;;;;;;1542.90;999.90;;;33.00;99.90;;;;;;5044377;28;20092;-66
2023/12/05 08:05:24;;;;;;;1556.93;999.90;;;33.00;99.90;;;;;;5043689;28;20021;-66
2023/12/05 08:07:50;;;;;;;1556.75;999.90;;;32.90;99.90;;;;;;5042917;28;20017;-65
2023/12/05 08:10:17;;;;;;;1565.95;999.90;;;32.90;99.90;;;;;;5043826;28;20375;-64
2023/12/05 08:12:43;;;;;;;1573.70;999.90;;;32.90;99.90;;;;;;5039078;28;20048;-65
2023/12/05 08:15:10;;;;;;;1535.22;999.90;;;32.90;99.90;;;;;;5043926;28;20380;-65
2023/12/05 08:17:37;;;;;;;1568.90;999.90;;;32.80;99.90;;;;;;5041115;28;20014;-65
2023/12/05 08:20:04;;;;;;;1565.03;999.90;;;32.80;99.90;;;;;;5043110;28;20100;-65
2023/12/05 08:22:30;;;;;;;1570.78;999.90;;;32.70;99.90;;;;;;5043861;28;20024;-65
2023/12/05 08:24:57;;;;;;;1573.38;999.90;;;32.70;99.90;;;;;;5042127;28;20407;-66
2023/12/05 08:27:23;;;;;;;1583.38;999.90;;;32.60;99.90;;;;;;5043319;28;20020;-64
2023/12/05 08:29:50;;;;;;;1560.38;999.90;;;32.60;99.90;;;;;;5043795;28;20490;-65
2023/12/05 08:32:16;;;;;;;1581.65;999.90;;;32.50;99.90;;;;;;5033600;28;20420;-67
2023/12/05 08:34:43;;;;;;;1578.65;999.90;;;32.40;99.90;;;;;;5034143;28;20022;-66
2023/12/05 08:37:09;;;;;;;1576.63;999.90;;;32.40;99.90;;;;;;5033569;28;20076;-65
2023/12/05 08:39:36;;;;;;;1573.63;999.90;;;32.30;99.90;;;;;;5033812;28;20025;-65
2023/12/05 08:42:03;;;;;;;1549.78;999.90;;;32.30;99.90;;;;;;5033415;28;20030;-67
2023/12/05 08:44:31;;;;;;;1560.50;999.90;;;32.30;99.90;;;;;;5033749;28;20506;-67
2023/12/05 08:46:58;;;;;;;1583.13;999.90;;;32.30;99.90;;;;;;5033627;28;20426;-66
2023/12/05 08:49:25;;;;;;;1579.47;999.90;;;32.20;99.90;;;;;;5033304;28;20013;-68
2023/12/05 08:51:51;;;;;;;1580.47;999.90;;;32.10;99.90;;;;;;5038693;28;20398;-66
2023/12/05 08:54:18;;;;;;;1583.22;999.90;;;32.10;99.90;;;;;;5033530;28;20101;-66
2023/12/05 08:56:45;;;;;;;1582.25;999.90;;;32.10;99.90;;;;;;5034004;28;20026;-66
2023/12/05 08:59:11;;;;;;;1559.35;999.90;;;32.10;99.90;;;;;;5015275;28;20385;-66
2023/12/05 09:01:38;;;;;;;1577.70;999.90;;;32.10;99.90;;;;;;5032821;28;20021;-68
2023/12/05 09:04:04;;;;;;;1582.35;999.90;;;32.10;99.90;;;;;;5032597;28;20080;-67
2023/12/05 09:06:31;;;;;;;1584.93;999.90;;;32.00;99.90;;;;;;5032277;28;20096;-67
2023/12/05 09:08:58;;;;;;;1590.88;999.90;;;32.00;99.90;;;;;;5032209;28;20025;-67
2023/12/05 09:11:26;;;;;;;1587.00;999.90;;;32.00;99.90;;;;;;5031922;28;20137;-67
2023/12/05 09:13:52;;;;;;;1583.28;999.90;;;32.00;99.90;;;;;;5032209;28;20034;-68
2023/12/05 09:16:20;;;;;;;1567.93;999.90;;;32.00;99.90;;;;;;5032432;28;20024;-67
2023/12/05 09:18:46;;;;;;;1589.82;999.90;;;31.90;99.90;;;;;;5032118;28;20033;-66
2023/12/05 09:21:13;;;;;;;1571.82;999.90;;;31.80;99.90;;;;;;5032661;28;20025;-67
2023/12/05 09:23:39;;;;;;;1594.55;999.90;;;31.80;99.90;;;;;;5032758;28;20018;-67
2023/12/05 09:26:06;;;;;;;1591.68;999.90;;;31.70;99.90;;;;;;5032581;28;20085;-67
2023/12/05 09:28:34;;;;;;;1538.57;999.90;;;31.80;99.90;;;;;;5033749;28;20083;-66
2023/12/05 09:31:00;;;;;;;1584.75;999.90;;;31.80;99.90;;;;;;5036498;28;20030;-67
2023/12/05 09:33:27;;;;;;;1514.07;999.90;;;31.70;99.90;;;;;;5036500;28;20079;-67
2023/12/05 09:35:54;;;;;;;1605.50;999.90;;;31.80;99.90;;;;;;5036615;28;20376;-68
2023/12/05 09:38:20;;;;;;;1660.20;999.90;;;31.70;99.90;;;;;;5035630;28;20021;-66
2023/12/05 09:40:50;;;;;;;1612.78;999.90;;;31.70;99.90;;;;;;5033220;28;20029;-68
2023/12/05 09:43:21;;;;;;;1577.80;999.90;;;31.60;99.90;;;;;;5018740;28;20492;-66
2023/12/05 09:45:50;;;;;;;1590.67;999.90;;;31.50;99.90;;;;;;5018734;28;20510;-66
2023/12/05 09:48:21;;;;;;;1599.70;999.90;;;31.60;99.90;;;;;;5036306;28;20281;-67
2023/12/05 09:50:48;;;;;;;1603.38;999.90;;;31.50;99.90;;;;;;5036532;28;20432;-66
2023/12/05 09:53:16;;;;;;;1575.38;999.90;;;31.30;99.90;;;;;;5041551;28;20116;-67
2023/12/05 09:55:43;;;;;;;1612.38;999.90;;;31.30;99.90;;;;;;5045513;28;20442;-67
2023/12/05 09:58:11;;;;;;;1506.43;999.90;;;31.10;99.90;;;;;;5045270;28;20033;-66
2023/12/05 10:00:37;;;;;;;1499.80;999.90;;;31.10;99.90;;;;;;5046727;28;20410;-67
2023/12/05 10:03:06;;;;;;;1608.97;999.90;;;31.10;99.90;;;;;;5045603;28;20017;-66
2023/12/05 10:05:36;;;;;;;1610.45;999.90;;;31.10;99.90;;;;;;5044668;28;20092;-66
2023/12/05 10:08:03;;;;;;;1592.80;999.90;;;31.00;99.90;;;;;;5043424;28;20380;-66
2023/12/05 10:10:32;;;;;;;1593.25;999.90;;;30.90;99.90;;;;;;5044724;28;20430;-65
2023/12/05 10:13:02;;;;;;;1482.25;999.90;;;30.90;99.90;;;;;;5041880;28;20441;-67
2023/12/05 10:15:29;;;;;;;1607.45;999.90;;;30.80;99.90;;;;;;5045265;28;20028;-65
2023/12/05 10:17:57;;;;;;;1612.68;999.90;;;30.80;99.90;;;;;;5046041;28;20471;-67
2023/12/05 10:20:24;;;;;;;1613.07;999.90;;;30.80;99.90;;;;;;5045152;28;20029;-66
2023/12/05 10:22:52;;;;;;;1613.18;999.90;;;30.60;99.90;;;;;;5038467;28;20025;-66
2023/12/05 10:25:19;;;;;;;1624.55;999.90;;;30.50;99.90;;;;;;5043370;28;20140;-66
2023/12/05 10:28:01;;;;;;;1611.88;999.90;;;30.40;99.90;;;;;;5044915;28;20480;-68
2023/12/05 10:30:38;;;;;;;1595.38;999.90;;;30.40;99.90;;;;;;5041542;28;20029;-66
2023/12/05 10:33:15;;;;;;;1590.53;999.90;;;30.30;99.90;;;;;;5042760;28;20017;-66
2023/12/05 10:35:44;;;;;;;1606.90;999.90;;;30.30;99.90;;;;;;5041912;28;20271;-64
2023/12/05 10:38:13;;;;;;;1615.82;999.90;;;30.20;99.90;;;;;;5045554;28;20480;-65
2023/12/05 10:40:51;;;;;;;1680.00;999.90;;;30.20;99.90;;;;;;5045835;28;20029;-67
2023/12/05 10:43:20;;;;;;;1619.15;999.90;;;30.30;99.90;;;;;;5044931;28;20458;-67
2023/12/05 10:45:47;;;;;;;1606.45;999.90;;;30.30;99.90;;;;;;5045298;28;20017;-68
2023/12/05 10:48:15;;;;;;;1602.07;999.90;;;30.30;99.90;;;;;;5044599;28;20021;-68
2023/12/05 10:50:44;;;;;;;1617.75;999.90;;;30.30;99.90;;;;;;5044022;28;20021;-67
2023/12/05 10:53:11;;;;;;;1614.43;999.90;;;30.30;99.90;;;;;;5045247;28;20443;-67
2023/12/05 10:55:37;;;;;;;1610.22;999.90;;;30.20;99.90;;;;;;5045807;28;20104;-67
2023/12/05 10:58:04;;;;;;;1588.47;999.90;;;30.20;99.90;;;;;;5044457;28;20075;-68
2023/12/05 11:00:31;;;;;;;1614.05;999.90;;;30.30;99.90;;;;;;5044865;28;20487;-67
2023/12/05 11:02:58;;;;;;;1624.57;999.90;;;30.20;99.90;;;;;;5046738;28;20390;-69
2023/12/05 11:05:27;;;;;;;1506.50;999.90;;;30.20;99.90;;;;;;5044177;28;20091;-66
2023/12/05 11:07:53;;;;;;;1512.00;999.90;;;30.10;99.90;;;;;;5045635;28;20108;-66
2023/12/05 11:10:20;;;;;;;1603.53;999.90;;;30.10;99.90;;;;;;5052622;28;20017;-65
2023/12/05 11:12:50;;;;;;;1602.68;999.90;;;30.20;99.90;;;;;;5054979;28;20068;-66
2023/12/05 11:15:23;;;;;;;1622.90;999.90;;;30.20;99.90;;;;;;5042269;28;20022;-67
2023/12/05 11:17:59;;;;;;;1598.53;999.90;;;30.20;99.90;;;;;;5040300;28;20029;-66
2023/12/05 11:20:25;;;;;;;1688.70;999.90;;;30.20;99.90;;;;;;5043739;28;20028;-67
2023/12/05 11:23:22;;;;;;;1714.25;999.90;;;30.20;99.90;;;;;;5044119;28;20379;-66
2023/12/05 11:26:15;;;;;;;1672.28;999.90;;;30.20;99.90;;;;;;4953590;28;20034;-65
2023/12/05 11:29:03;;;;;;;1652.85;999.90;;;30.10;99.90;;;;;;4954313;29;20027;-68
2023/12/05 11:31:48;;;;;;;1641.63;999.90;;;30.00;99.90;;;;;;4953850;29;20420;-68
2023/12/05 11:34:43;;;;;;;1629.05;999.90;;;30.00;99.90;;;;;;4953084;29;20066;-67
2023/12/05 11:37:11;;;;;;;1639.25;999.90;;;29.90;99.90;;;;;;4934514;29;20047;-71
2023/12/05 11:39:38;;;;;;;1626.45;999.90;;;29.90;99.90;;;;;;4934294;29;20403;-69
2023/12/05 11:42:15;;;;;;;1621.90;999.90;;;29.80;99.90;;;;;;4934505;29;20095;-69
2023/12/05 11:44:42;;;;;;;1528.65;999.90;;;29.80;99.90;;;;;;4934779;29;20039;-65
2023/12/05 11:47:16;;;;;;;1608.65;999.90;;;29.70;99.90;;;;;;4934713;29;20036;-65
2023/12/05 11:49:55;;;;;;;1618.18;999.90;;;29.60;99.90;;;;;;4934455;29;20043;-67
2023/12/05 11:52:23;;;;;;;1601.63;999.90;;;29.50;99.90;;;;;;4934003;29;20592;-68
2023/12/05 11:54:52;;;;;;;1589.00;999.90;;;29.50;99.90;;;;;;4932428;29;20024;-65
2023/12/05 11:57:20;;;;;;;1622.85;999.90;;;29.50;99.90;;;;;;4935187;29;20043;-67
2023/12/05 11:59:50;;;;;;;1607.88;999.90;;;29.50;99.90;;;;;;4934538;29;20040;-65
2023/12/05 12:02:25;;;;;;;1622.85;999.90;;;29.50;99.90;;;;;;4959419;28;20544;-66